Greenspond, Canada
Current Conditions -  °F | °C
As of 9:00 AM on Thursday 23 Oct 2014 (Local Time) from CYQX Reporting Station
Broken Clouds Broken Clouds  
Wind Chill:   Ceiling: 22000
Heat Index:   Visibility: 20mi
Dew Point:   Wind: 6mph
Humidity: 100%   Direction: 210°SSW
Pressure: 30.4"   Gusts: NA
Location:  49.05°N, 53.58°W
Report Text: CYQX 231100Z 21005KT 20SM BKN220 BKN260 03/03 A3040 RMK CC6CI1 SC/AC TR SLP299
Loading
Personal Weather Stations






























Interactive Weather Map
Tropical Storm Tracking
New forecast layout! Learn more

10-Day Weather Forecast

Advertisements
Track Severe Weather on mobile